Time;durP1;ratioP1;P1;durP2;ratioP2;P2;SDS_P1;SDS_P2;PMS_P1;PMS_P2;Temp;Humidity;BMP_temperature;BMP_pressure;BME280_temperature;BME280_humidity;BME280_pressure;Samples;Min_cycle;Max_cycle;Signal;HPM_P1;HPM_P2
2021/05/03 00:01:18;;;;;;;41.70;20.02;;;14.00;99.90;;;;;;4974903;28;20030;-76
2021/05/03 00:03:45;;;;;;;43.72;20.45;;;14.00;99.90;;;;;;4976272;28;20537;-76
2021/05/03 00:06:11;;;;;;;44.42;21.10;;;14.00;99.90;;;;;;5007514;28;20073;-76
2021/05/03 00:08:36;;;;;;;39.10;20.48;;;14.00;99.90;;;;;;4976264;28;20050;-76
2021/05/03 00:11:02;;;;;;;41.67;20.67;;;14.00;99.90;;;;;;4976154;28;20039;-76
2021/05/03 00:13:28;;;;;;;45.83;20.55;;;14.00;99.90;;;;;;5007307;28;20031;-75
2021/05/03 00:15:54;;;;;;;39.05;20.67;;;13.90;99.90;;;;;;4976031;28;20036;-74
2021/05/03 00:18:20;;;;;;;38.58;20.83;;;13.90;99.90;;;;;;4974683;28;20033;-74
2021/05/03 00:20:46;;;;;;;40.97;19.65;;;13.90;99.90;;;;;;4976060;28;20458;-75
2021/05/03 00:23:14;;;;;;;46.63;22.05;;;13.90;99.90;;;;;;4975923;28;20041;-74
2021/05/03 00:25:40;;;;;;;46.03;20.35;;;13.90;99.90;;;;;;4975771;28;20031;-74
2021/05/03 00:28:06;;;;;;;41.53;20.48;;;13.90;99.90;;;;;;4975641;28;20391;-75
2021/05/03 00:30:32;;;;;;;38.10;20.00;;;13.80;99.90;;;;;;4975650;28;20030;-75
2021/05/03 00:32:58;;;;;;;42.08;21.30;;;13.80;99.90;;;;;;4975686;28;20484;-74
2021/05/03 00:35:23;;;;;;;31.52;19.42;;;13.80;99.90;;;;;;4975726;28;20019;-74
2021/05/03 00:37:49;;;;;;;41.35;20.08;;;13.80;99.90;;;;;;4975452;28;20023;-74
2021/05/03 00:40:15;;;;;;;36.92;20.85;;;13.80;99.90;;;;;;4975595;28;20452;-74
2021/05/03 00:42:44;;;;;;;37.92;20.45;;;13.80;99.90;;;;;;4975457;28;20026;-75
2021/05/03 00:45:16;;;;;;;39.75;20.73;;;13.80;99.90;;;;;;4973343;28;20030;-74
2021/05/03 00:47:42;;;;;;;43.78;21.25;;;13.70;99.90;;;;;;5006543;28;20039;-74
2021/05/03 00:50:10;;;;;;;38.97;21.50;;;13.70;99.90;;;;;;4975241;28;20086;-74
2021/05/03 00:52:36;;;;;;;37.90;21.13;;;13.70;99.90;;;;;;5006878;28;20042;-74
2021/05/03 00:55:04;;;;;;;41.08;20.95;;;13.70;99.90;;;;;;4975274;28;20022;-75
2021/05/03 00:57:29;;;;;;;46.05;20.73;;;13.70;99.90;;;;;;4975385;28;20031;-75
2021/05/03 00:59:55;;;;;;;42.35;20.17;;;13.70;99.90;;;;;;4975166;28;20428;-74
2021/05/03 01:02:22;;;;;;;35.13;20.77;;;13.70;99.90;;;;;;4975097;28;20023;-74
2021/05/03 01:04:48;;;;;;;42.35;20.67;;;13.70;99.90;;;;;;4975024;28;20031;-74
2021/05/03 01:07:14;;;;;;;42.15;22.10;;;13.70;99.90;;;;;;4975049;28;20488;-74
2021/05/03 01:09:40;;;;;;;43.30;22.05;;;13.70;99.90;;;;;;4975009;28;20042;-75
2021/05/03 01:12:07;;;;;;;38.55;21.48;;;13.70;99.90;;;;;;4974913;28;20027;-74
2021/05/03 01:14:32;;;;;;;44.72;21.65;;;13.70;99.90;;;;;;4974877;28;20023;-73
2021/05/03 01:16:58;;;;;;;42.42;21.60;;;13.60;99.90;;;;;;4974875;28;20034;-74
2021/05/03 01:19:24;;;;;;;41.67;21.15;;;13.60;99.90;;;;;;4975023;28;20035;-74
2021/05/03 01:21:51;;;;;;;42.92;21.27;;;13.60;99.90;;;;;;4973539;28;20027;-74
2021/05/03 01:24:18;;;;;;;42.38;21.73;;;13.60;99.90;;;;;;4976413;28;20050;-81
2021/05/03 01:26:45;;;;;;;48.13;22.65;;;13.60;99.90;;;;;;4981141;28;20046;-81
2021/05/03 01:29:12;;;;;;;44.40;23.05;;;13.60;99.90;;;;;;4978667;28;20031;-75
2021/05/03 01:31:37;;;;;;;35.08;21.52;;;13.60;99.90;;;;;;4974926;28;20126;-76
2021/05/03 01:34:09;;;;;;;37.97;21.58;;;13.60;99.90;;;;;;4973085;28;20050;-75
2021/05/03 01:36:42;;;;;;;42.65;21.60;;;13.60;99.90;;;;;;4974354;28;20110;-75
2021/05/03 01:39:11;;;;;;;43.55;22.38;;;13.60;99.90;;;;;;4973107;28;20027;-76
2021/05/03 01:41:37;;;;;;;45.28;23.13;;;13.60;99.90;;;;;;4973167;28;20416;-75
2021/05/03 01:44:08;;;;;;;42.15;21.42;;;13.60;99.90;;;;;;4974288;28;20037;-75
2021/05/03 01:46:35;;;;;;;45.00;21.88;;;13.50;99.90;;;;;;4973139;28;20030;-74
2021/05/03 01:49:04;;;;;;;41.90;23.40;;;13.50;99.90;;;;;;4974329;28;20039;-76
2021/05/03 01:51:31;;;;;;;36.72;21.35;;;13.60;99.90;;;;;;4974207;28;20381;-76
2021/05/03 01:53:58;;;;;;;36.75;21.83;;;13.50;99.90;;;;;;4974290;28;20445;-76
2021/05/03 01:56:25;;;;;;;46.25;22.48;;;13.60;99.90;;;;;;5005377;28;20023;-77
2021/05/03 01:58:52;;;;;;;44.80;22.50;;;13.50;99.90;;;;;;4974145;28;20031;-77
2021/05/03 02:01:18;;;;;;;39.75;22.02;;;13.50;99.90;;;;;;5005491;28;20545;-77
2021/05/03 02:03:43;;;;;;;37.83;21.33;;;13.50;99.90;;;;;;4974357;28;20114;-77
2021/05/03 02:06:12;;;;;;;43.10;23.40;;;13.50;99.90;;;;;;4974637;28;20027;-77
2021/05/03 02:08:38;;;;;;;45.38;22.45;;;13.50;99.90;;;;;;4974141;28;20031;-77
2021/05/03 02:11:04;;;;;;;40.40;22.33;;;13.50;99.90;;;;;;4973943;28;20084;-77
2021/05/03 02:13:30;;;;;;;38.97;21.98;;;13.50;99.90;;;;;;4973972;28;20098;-77
2021/05/03 02:15:56;;;;;;;44.42;22.85;;;13.50;99.90;;;;;;4973984;28;20054;-78
2021/05/03 02:18:22;;;;;;;45.55;22.42;;;13.50;99.90;;;;;;4973910;28;20034;-78
2021/05/03 02:20:48;;;;;;;39.72;22.30;;;13.50;99.90;;;;;;4973655;28;20030;-77
2021/05/03 02:23:14;;;;;;;43.80;23.25;;;13.50;99.90;;;;;;4973800;28;20034;-77
2021/05/03 02:25:40;;;;;;;41.65;23.08;;;13.50;99.90;;;;;;4973947;28;20027;-77
2021/05/03 02:28:06;;;;;;;49.60;23.10;;;13.50;99.90;;;;;;4973693;28;20050;-77
2021/05/03 02:30:31;;;;;;;51.75;22.27;;;13.50;99.90;;;;;;4972432;28;20390;-77
2021/05/03 02:32:57;;;;;;;41.38;21.23;;;13.50;99.90;;;;;;4973918;28;20050;-76
2021/05/03 02:35:25;;;;;;;44.10;23.20;;;13.50;99.90;;;;;;4972456;28;20488;-76
2021/05/03 02:37:55;;;;;;;36.75;22.33;;;13.50;99.90;;;;;;5005195;28;20033;-76
2021/05/03 02:40:24;;;;;;;40.15;21.52;;;13.60;99.90;;;;;;5005239;28;20433;-77
2021/05/03 02:42:51;;;;;;;36.70;21.05;;;13.60;99.90;;;;;;4974008;28;20123;-77
2021/05/03 02:45:18;;;;;;;40.42;21.17;;;13.60;99.90;;;;;;4974120;28;20027;-77
2021/05/03 02:47:45;;;;;;;36.63;22.30;;;13.70;99.90;;;;;;4973548;28;20457;-77
2021/05/03 02:50:13;;;;;;;39.78;22.33;;;13.70;99.90;;;;;;4973185;28;20053;-77
2021/05/03 02:52:39;;;;;;;47.33;21.48;;;13.70;99.90;;;;;;4973501;28;20402;-76
2021/05/03 02:55:08;;;;;;;35.38;22.08;;;13.80;99.90;;;;;;4973703;28;20074;-77
2021/05/03 02:57:34;;;;;;;37.67;21.73;;;13.80;99.90;;;;;;5005178;28;20027;-77
2021/05/03 03:00:00;;;;;;;42.60;21.00;;;13.80;99.90;;;;;;4973585;28;20027;-77
2021/05/03 03:02:25;;;;;;;40.08;21.90;;;13.80;99.90;;;;;;4973520;28;20039;-77
2021/05/03 03:04:51;;;;;;;41.92;20.48;;;13.90;99.90;;;;;;4973680;28;20031;-77
2021/05/03 03:07:17;;;;;;;37.65;20.80;;;14.00;99.90;;;;;;4973438;28;20031;-77
2021/05/03 03:09:42;;;;;;;38.95;21.20;;;14.00;99.90;;;;;;4976146;28;20085;-78
2021/05/03 03:12:10;;;;;;;38.13;20.77;;;14.10;99.90;;;;;;4977453;28;20027;-77
2021/05/03 03:14:37;;;;;;;37.95;20.63;;;14.20;99.90;;;;;;4977876;28;20449;-77
2021/05/03 03:17:03;;;;;;;36.22;21.75;;;14.20;99.90;;;;;;4978165;28;20093;-77
2021/05/03 03:19:30;;;;;;;40.35;20.13;;;14.30;99.90;;;;;;4977761;28;20027;-77
2021/05/03 03:21:55;;;;;;;33.58;19.33;;;14.40;99.90;;;;;;4977568;28;20557;-77
2021/05/03 03:24:21;;;;;;;35.13;19.38;;;14.60;99.90;;;;;;4978371;28;20105;-78
2021/05/03 03:26:47;;;;;;;30.67;19.67;;;14.70;99.90;;;;;;4978138;28;20892;-77
2021/05/03 03:29:13;;;;;;;34.63;18.35;;;14.90;99.90;;;;;;4978198;28;20031;-78
2021/05/03 03:31:38;;;;;;;30.25;17.33;;;15.00;99.90;;;;;;4976979;28;20110;-77
2021/05/03 03:34:04;;;;;;;31.38;17.27;;;15.20;99.90;;;;;;4975756;28;20023;-78
2021/05/03 03:36:30;;;;;;;33.08;15.85;;;15.40;99.90;;;;;;4976772;28;20023;-76
2021/05/03 03:38:55;;;;;;;30.63;16.85;;;15.50;99.90;;;;;;4976679;28;20027;-77
2021/05/03 03:41:21;;;;;;;33.63;16.55;;;15.70;99.90;;;;;;4976779;28;20102;-77
2021/05/03 03:43:47;;;;;;;30.05;17.20;;;15.80;99.90;;;;;;4976615;28;20027;-77
2021/05/03 03:46:13;;;;;;;30.77;17.33;;;15.80;99.90;;;;;;4976926;28;20019;-77
2021/05/03 03:48:39;;;;;;;36.70;17.48;;;15.90;99.90;;;;;;4976971;28;20062;-76
2021/05/03 03:51:05;;;;;;;28.13;15.82;;;16.00;99.90;;;;;;4976720;28;20027;-76
2021/05/03 03:53:31;;;;;;;32.88;16.50;;;16.10;99.90;;;;;;4975129;28;20026;-76
2021/05/03 03:55:57;;;;;;;25.40;15.27;;;16.20;99.90;;;;;;4976226;28;20019;-76
2021/05/03 03:58:22;;;;;;;25.67;14.55;;;16.40;99.90;;;;;;4976292;28;20215;-77
2021/05/03 04:00:48;;;;;;;22.33;12.63;;;16.70;99.90;;;;;;4975040;28;20031;-77
2021/05/03 04:03:15;;;;;;;23.95;13.27;;;17.50;99.90;;;;;;4976127;28;20023;-77
2021/05/03 04:08:31;;;;;;;18.73;11.10;;;19.80;99.90;;;;;;4976084;28;20029;-77
2021/05/03 04:24:11;;;;;;;14.00;7.15;;;23.80;81.70;;;;;;4975742;28;20470;-76
2021/05/03 04:26:37;;;;;;;13.60;7.00;;;24.00;78.60;;;;;;4975617;28;20047;-76
2021/05/03 04:29:03;;;;;;;12.80;6.40;;;24.30;76.40;;;;;;5007708;28;20027;-75
2021/05/03 04:31:29;;;;;;;16.35;6.22;;;24.60;74.30;;;;;;4975581;28;20030;-76
2021/05/03 04:33:55;;;;;;;9.55;5.95;;;25.00;72.40;;;;;;4975536;28;20027;-75
2021/05/03 04:36:21;;;;;;;14.85;6.47;;;25.30;70.30;;;;;;4975525;28;20027;-76
2021/05/03 04:38:48;;;;;;;13.23;6.68;;;25.50;68.60;;;;;;4975528;28;20031;-75
2021/05/03 04:41:14;;;;;;;14.88;6.13;;;25.60;66.90;;;;;;4975334;28;20023;-77
2021/05/03 04:43:40;;;;;;;13.40;6.35;;;25.80;66.10;;;;;;4975219;28;20027;-76
2021/05/03 04:46:09;;;;;;;8.93;6.35;;;26.00;64.90;;;;;;4975376;28;20042;-76
2021/05/03 04:48:35;;;;;;;13.68;5.70;;;26.10;63.60;;;;;;5006870;28;20031;-75
2021/05/03 04:51:01;;;;;;;7.13;5.90;;;26.20;62.70;;;;;;4975219;28;20054;-75
2021/05/03 04:53:27;;;;;;;9.13;5.25;;;26.20;61.30;;;;;;4975155;28;20023;-76
2021/05/03 04:55:53;;;;;;;7.88;5.45;;;26.20;60.50;;;;;;4975129;28;20031;-76
2021/05/03 04:58:18;;;;;;;9.18;5.50;;;26.30;60.00;;;;;;4975224;28;20077;-77
2021/05/03 05:00:44;;;;;;;8.00;5.20;;;26.60;59.30;;;;;;4975917;28;20031;-76
2021/05/03 05:03:10;;;;;;;14.05;6.88;;;26.60;58.20;;;;;;5006134;28;20054;-76
2021/05/03 05:05:36;;;;;;;16.13;5.60;;;26.40;57.40;;;;;;4974793;28;20038;-76
2021/05/03 05:08:02;;;;;;;9.90;5.88;;;26.10;56.90;;;;;;4974456;28;20054;-76
2021/05/03 05:10:27;;;;;;;11.95;5.95;;;25.80;57.00;;;;;;4974325;28;20118;-76
2021/05/03 05:12:53;;;;;;;11.15;5.00;;;25.60;57.50;;;;;;4974819;28;20094;-76
2021/05/03 05:15:19;;;;;;;16.67;5.65;;;25.50;57.70;;;;;;4974864;28;20366;-76
2021/05/03 05:17:49;;;;;;;6.50;4.78;;;25.50;57.20;;;;;;4974941;28;20039;-76
2021/05/03 05:20:19;;;;;;;10.18;6.43;;;25.30;56.90;;;;;;4975176;28;20556;-77
2021/05/03 05:22:45;;;;;;;9.18;5.13;;;25.00;56.70;;;;;;4974681;28;20105;-77
2021/05/03 05:25:11;;;;;;;39.05;25.05;;;24.70;57.20;;;;;;4974584;28;20102;-77
2021/05/03 05:27:38;;;;;;;10.02;5.88;;;24.30;57.30;;;;;;5005501;28;20524;-76
2021/05/03 05:30:05;;;;;;;7.78;4.90;;;23.90;57.60;;;;;;4974373;28;20027;-77
2021/05/03 05:32:31;;;;;;;8.80;4.85;;;23.60;57.90;;;;;;4973969;28;20031;-78
2021/05/03 05:34:56;;;;;;;7.05;4.97;;;23.30;58.30;;;;;;4975005;28;20030;-77
2021/05/03 05:37:22;;;;;;;12.82;5.20;;;23.10;58.80;;;;;;4973653;28;20046;-77
2021/05/03 05:39:48;;;;;;;9.63;4.60;;;22.90;59.10;;;;;;4974572;28;20109;-76
2021/05/03 05:42:14;;;;;;;8.95;5.10;;;22.80;59.30;;;;;;5005760;28;20029;-76
2021/05/03 05:44:39;;;;;;;5.80;4.93;;;22.60;59.60;;;;;;5005714;28;20436;-77
2021/05/03 05:47:05;;;;;;;18.63;5.22;;;22.50;59.70;;;;;;4974360;28;20042;-77
2021/05/03 05:49:31;;;;;;;9.50;4.82;;;22.30;59.70;;;;;;5005497;28;20078;-77
2021/05/03 05:51:57;;;;;;;10.00;4.60;;;22.00;59.60;;;;;;4974144;28;20068;-77
2021/05/03 05:54:23;;;;;;;9.93;5.03;;;21.80;60.00;;;;;;4974376;28;20099;-77
2021/05/03 05:56:48;;;;;;;9.20;4.85;;;21.60;60.50;;;;;;4974424;28;20030;-78
2021/05/03 05:59:15;;;;;;;7.20;4.75;;;21.40;60.90;;;;;;5006266;28;20060;-78
2021/05/03 06:01:41;;;;;;;13.65;4.88;;;21.30;61.30;;;;;;4974522;28;20023;-78
2021/05/03 06:04:07;;;;;;;11.00;4.90;;;21.10;61.40;;;;;;4974068;28;20029;-77
2021/05/03 06:06:35;;;;;;;10.40;5.30;;;20.90;61.70;;;;;;4974147;28;20377;-77
2021/05/03 06:09:01;;;;;;;8.68;5.90;;;20.80;62.10;;;;;;4973665;28;20496;-78
2021/05/03 06:11:27;;;;;;;8.15;5.63;;;20.60;62.40;;;;;;4974253;28;20019;-78
2021/05/03 06:13:53;;;;;;;11.18;6.38;;;20.40;62.80;;;;;;5004894;28;20034;-79
2021/05/03 06:16:18;;;;;;;8.07;5.93;;;20.30;63.50;;;;;;4974274;28;20023;-79
2021/05/03 06:18:44;;;;;;;10.70;5.57;;;20.10;63.80;;;;;;5004831;28;20023;-79
2021/05/03 06:21:10;;;;;;;6.10;5.43;;;19.90;64.20;;;;;;4973481;28;20409;-78
2021/05/03 06:23:36;;;;;;;9.93;5.80;;;19.80;65.40;;;;;;4974066;28;20038;-79
2021/05/03 06:26:02;;;;;;;7.65;4.70;;;19.60;65.20;;;;;;4973658;28;20058;-80
2021/05/03 06:28:27;;;;;;;16.10;6.97;;;19.50;65.70;;;;;;4974480;28;20078;-81
2021/05/03 06:30:56;;;;;;;13.15;6.25;;;19.40;66.30;;;;;;4973509;28;20694;-79
2021/05/03 06:33:22;;;;;;;13.50;6.47;;;19.30;66.70;;;;;;4973806;28;20106;-80
2021/05/03 06:35:48;;;;;;;7.78;5.72;;;19.20;67.20;;;;;;4974266;28;20027;-80
2021/05/03 06:38:14;;;;;;;10.75;6.18;;;19.10;67.80;;;;;;4974391;28;20079;-79
2021/05/03 06:40:40;;;;;;;12.15;5.82;;;19.00;68.40;;;;;;4973455;28;20080;-80
2021/05/03 06:43:06;;;;;;;14.15;6.38;;;18.90;68.70;;;;;;4973226;28;20031;-79
2021/05/03 06:45:33;;;;;;;8.38;5.85;;;18.90;68.90;;;;;;4974187;28;20027;-80
2021/05/03 06:48:00;;;;;;;10.93;5.47;;;18.80;69.30;;;;;;5005642;28;20405;-80
2021/05/03 06:50:26;;;;;;;8.73;4.93;;;18.80;69.50;;;;;;5004820;28;20034;-80
2021/05/03 06:52:52;;;;;;;12.10;6.45;;;18.80;69.80;;;;;;4974201;28;20389;-80
2021/05/03 06:55:18;;;;;;;14.98;8.82;;;18.80;70.00;;;;;;5005111;28;20492;-80
2021/05/03 06:57:44;;;;;;;9.13;5.78;;;18.80;70.20;;;;;;4972410;28;20027;-81
2021/05/03 07:00:12;;;;;;;12.40;5.40;;;18.80;70.30;;;;;;4973862;28;20027;-80
2021/05/03 07:02:39;;;;;;;10.25;4.93;;;18.80;70.00;;;;;;4972070;28;20026;-80
2021/05/03 07:05:06;;;;;;;7.97;6.05;;;18.90;70.00;;;;;;5004910;28;20055;-80
2021/05/03 07:07:32;;;;;;;9.48;5.63;;;19.00;69.70;;;;;;4973651;28;20026;-79
2021/05/03 07:09:58;;;;;;;14.50;5.53;;;19.10;69.60;;;;;;4973682;28;20027;-80
2021/05/03 07:12:25;;;;;;;12.23;6.93;;;19.30;69.60;;;;;;5005658;28;20172;-78
2021/05/03 07:14:51;;;;;;;13.82;5.38;;;19.30;69.40;;;;;;4973421;28;20418;-80
2021/05/03 07:17:17;;;;;;;8.15;3.88;;;19.50;69.30;;;;;;4973400;28;20037;-79
2021/05/03 07:19:43;;;;;;;5.93;4.00;;;19.70;68.50;;;;;;4973387;28;20495;-80
2021/05/03 07:22:10;;;;;;;9.60;3.70;;;20.00;67.60;;;;;;4973482;28;20058;-81
2021/05/03 07:24:37;;;;;;;8.88;4.05;;;20.40;67.40;;;;;;4973520;28;20031;-80
2021/05/03 07:27:08;;;;;;;8.13;3.63;;;21.10;66.30;;;;;;5004421;28;20101;-80
2021/05/03 07:29:34;;;;;;;4.95;3.70;;;21.70;64.50;;;;;;4972927;28;20027;-80
2021/05/03 07:31:59;;;;;;;7.05;3.60;;;22.50;63.50;;;;;;4971884;28;20026;-78
2021/05/03 07:34:25;;;;;;;12.70;3.20;;;23.40;61.00;;;;;;4972595;28;20093;-79
2021/05/03 07:36:51;;;;;;;6.03;3.70;;;23.80;58.30;;;;;;4972938;28;20485;-78
2021/05/03 07:39:20;;;;;;;3.08;2.55;;;24.40;56.70;;;;;;4973038;28;20054;-78
2021/05/03 07:41:45;;;;;;;11.50;3.60;;;24.80;54.70;;;;;;4972971;28;20089;-82
2021/05/03 07:44:11;;;;;;;5.15;2.92;;;25.20;53.50;;;;;;4973703;28;20425;-79
2021/05/03 07:46:37;;;;;;;6.75;2.72;;;25.60;52.60;;;;;;4973272;28;20557;-77
2021/05/03 07:49:05;;;;;;;4.63;2.80;;;25.70;50.80;;;;;;4974116;28;20038;-78
2021/05/03 07:51:31;;;;;;;9.43;3.28;;;26.00;50.10;;;;;;4972527;28;20023;-78
2021/05/03 07:53:59;;;;;;;8.60;3.35;;;26.10;49.40;;;;;;4973258;28;20027;-78
2021/05/03 07:56:26;;;;;;;5.10;2.67;;;26.20;48.90;;;;;;4976445;28;20026;-79
2021/05/03 07:58:51;;;;;;;8.18;2.50;;;26.30;48.50;;;;;;4976273;28;20112;-77
2021/05/03 08:01:18;;;;;;;4.25;2.83;;;26.70;48.40;;;;;;4976524;28;20058;-78
2021/05/03 08:03:44;;;;;;;5.45;2.85;;;27.40;48.20;;;;;;4983734;28;20027;-78
2021/05/03 08:06:14;;;;;;;3.53;2.75;;;27.80;47.30;;;;;;4987172;28;20378;-78
2021/05/03 08:08:47;;;;;;;5.18;2.97;;;28.20;46.70;;;;;;4984370;28;20057;-79
2021/05/03 08:11:14;;;;;;;11.77;3.55;;;28.40;45.70;;;;;;5007658;28;20039;-78
2021/05/03 08:13:42;;;;;;;3.75;2.42;;;28.30;45.50;;;;;;4976213;28;20023;-78
2021/05/03 08:16:16;;;;;;;6.18;2.80;;;28.20;44.90;;;;;;5006996;28;20500;-79
2021/05/03 08:18:43;;;;;;;6.15;2.85;;;28.00;44.60;;;;;;4973108;28;20093;-78
2021/05/03 08:21:09;;;;;;;13.60;3.28;;;27.90;45.20;;;;;;4973909;28;20106;-78
2021/05/03 08:23:35;;;;;;;8.10;3.10;;;27.80;45.40;;;;;;4972686;28;20026;-78
2021/05/03 08:26:01;;;;;;;4.35;3.05;;;27.90;45.60;;;;;;4974067;28;20520;-78
2021/05/03 08:28:27;;;;;;;3.28;2.95;;;27.90;45.50;;;;;;4972977;28;20026;-78
2021/05/03 08:30:53;;;;;;;4.07;3.00;;;27.90;45.00;;;;;;4973599;28;20038;-78
2021/05/03 08:33:20;;;;;;;5.10;2.70;;;28.00;45.00;;;;;;4973843;28;20030;-76
2021/05/03 08:35:47;;;;;;;8.07;2.80;;;28.10;44.80;;;;;;4974435;28;20027;-78
2021/05/03 08:38:14;;;;;;;12.25;2.92;;;28.10;44.50;;;;;;4974575;28;20031;-77
2021/05/03 08:40:41;;;;;;;2.88;2.63;;;28.10;44.30;;;;;;4972786;28;20031;-78
2021/05/03 08:43:07;;;;;;;10.32;2.90;;;27.90;43.70;;;;;;4974526;28;20111;-77
2021/05/03 08:45:35;;;;;;;11.50;4.35;;;27.80;44.00;;;;;;4974078;28;20098;-78
2021/05/03 08:53:31;;;;;;;19.33;3.13;;;27.70;43.80;;;;;;4974455;28;20023;-77
2021/05/03 08:55:57;;;;;;;4.03;2.65;;;27.60;43.80;;;;;;4974069;28;20020;-77
2021/05/03 08:58:23;;;;;;;11.10;3.55;;;27.60;43.60;;;;;;4973878;28;20430;-76
2021/05/03 09:00:50;;;;;;;6.15;2.50;;;27.60;43.70;;;;;;4972727;28;20105;-76
2021/05/03 09:03:16;;;;;;;4.88;3.08;;;27.70;43.50;;;;;;4973934;28;20038;-76
2021/05/03 09:05:45;;;;;;;10.45;3.10;;;27.80;44.00;;;;;;4974244;28;20031;-77
2021/05/03 09:08:28;;;;;;;11.48;3.67;;;27.90;44.10;;;;;;4972153;28;20113;-78
2021/05/03 09:10:55;;;;;;;5.57;2.60;;;28.00;43.40;;;;;;4972980;28;20069;-77
2021/05/03 09:13:36;;;;;;;8.45;2.78;;;27.90;43.10;;;;;;4973470;28;20077;-79
2021/05/03 09:16:15;;;;;;;9.17;2.73;;;27.90;43.40;;;;;;4973649;28;20022;-78
2021/05/03 09:18:42;;;;;;;6.57;3.00;;;27.90;43.20;;;;;;4973715;28;20019;-78
2021/05/03 09:21:21;;;;;;;2.63;2.42;;;28.00;43.40;;;;;;4973517;28;20355;-76
2021/05/03 09:24:08;;;;;;;12.25;2.67;;;27.90;43.30;;;;;;4973928;28;20030;-81
2021/05/03 09:26:38;;;;;;;9.27;2.92;;;27.80;43.50;;;;;;4972045;28;20065;-82
2021/05/03 09:29:34;;;;;;;9.70;2.88;;;27.80;43.60;;;;;;4973869;28;20023;-82
2021/05/03 09:32:09;;;;;;;4.70;2.20;;;27.70;43.40;;;;;;4964206;28;20075;-81
2021/05/03 09:34:54;;;;;;;3.85;2.45;;;27.50;43.50;;;;;;4973690;28;20489;-82
2021/05/03 09:37:34;;;;;;;6.30;2.50;;;27.30;43.70;;;;;;4972617;28;20041;-84
2021/05/03 09:40:06;;;;;;;6.30;2.80;;;27.00;43.80;;;;;;4974183;28;20031;-82
2021/05/03 09:42:43;;;;;;;5.50;2.78;;;26.70;43.80;;;;;;4975964;28;20090;-80
2021/05/03 09:45:15;;;;;;;8.27;2.67;;;26.30;43.80;;;;;;4973409;28;20088;-79
2021/05/03 09:47:41;;;;;;;;;;;25.90;43.80;;;;;;4973310;28;20087;-79
2021/05/03 09:50:14;;;;;;;7.78;2.72;;;25.60;44.80;;;;;;4972904;28;19909;-79
2021/05/03 09:52:59;;;;;;;7.30;3.00;;;25.40;44.70;;;;;;4973722;28;20042;-77
2021/05/03 09:55:35;;;;;;;5.90;3.13;;;25.20;45.20;;;;;;4971580;28;20078;-80
2021/05/03 09:58:21;;;;;;;6.65;2.42;;;25.10;45.40;;;;;;4971331;28;20031;-80
2021/05/03 10:01:05;;;;;;;4.78;2.65;;;25.10;45.50;;;;;;4972818;28;20033;-80
2021/05/03 10:06:13;;;;;;;2.50;2.20;;;25.00;45.60;;;;;;4972582;28;20034;-78
2021/05/03 10:08:49;;;;;;;5.38;2.80;;;24.80;45.40;;;;;;4972957;28;20047;-79
2021/05/03 10:11:16;;;;;;;3.13;2.83;;;24.70;45.70;;;;;;4972663;28;20050;-80
2021/05/03 10:13:47;;;;;;;5.03;2.58;;;24.50;46.00;;;;;;4971230;28;20034;-80
2021/05/03 10:16:13;;;;;;;4.40;2.80;;;24.40;46.30;;;;;;4972852;28;20023;-80
2021/05/03 10:18:41;;;;;;;9.23;3.00;;;24.30;46.60;;;;;;4971700;28;20070;-78
2021/05/03 10:21:08;;;;;;;3.95;2.30;;;24.30;46.80;;;;;;4971377;28;20022;-79
2021/05/03 10:23:34;;;;;;;5.85;2.72;;;24.30;47.10;;;;;;4971735;28;20065;-80
2021/05/03 10:26:00;;;;;;;6.35;2.85;;;24.20;46.90;;;;;;4972588;28;20030;-79
2021/05/03 10:28:27;;;;;;;4.07;2.95;;;24.10;46.90;;;;;;4972506;28;20062;-78
2021/05/03 10:30:58;;;;;;;2.90;2.60;;;23.90;47.00;;;;;;4972374;28;20041;-78
2021/05/03 10:33:37;;;;;;;6.05;2.80;;;23.50;47.20;;;;;;4972640;28;20074;-79
2021/05/03 10:36:05;;;;;;;4.05;3.65;;;23.20;47.50;;;;;;4972541;28;20022;-80
2021/05/03 10:38:33;;;;;;;7.03;3.17;;;22.90;47.70;;;;;;4970879;28;20058;-79
2021/05/03 10:41:01;;;;;;;6.13;3.78;;;22.50;48.10;;;;;;4971944;28;20492;-80
2021/05/03 10:43:40;;;;;;;6.22;3.05;;;22.10;48.60;;;;;;4972033;28;20505;-79
2021/05/03 10:54:25;;;;;;;8.48;3.05;;;20.80;51.60;;;;;;4972480;28;19910;-79
2021/05/03 10:56:53;;;;;;;5.50;2.50;;;20.50;51.70;;;;;;4972219;28;20030;-79
2021/05/03 10:59:19;;;;;;;4.70;2.78;;;20.30;52.10;;;;;;4970881;28;20031;-79
2021/05/03 11:02:08;;;;;;;6.40;2.90;;;20.10;52.50;;;;;;4972532;28;20034;-79
2021/05/03 11:04:36;;;;;;;6.68;3.78;;;19.80;53.20;;;;;;4961480;28;20039;-77
2021/05/03 11:07:10;;;;;;;6.80;3.22;;;19.70;53.40;;;;;;4972576;28;20043;-78
2021/05/03 11:09:41;;;;;;;5.65;3.00;;;19.50;53.90;;;;;;4970482;28;20035;-79
2021/05/03 11:12:09;;;;;;;3.58;3.10;;;19.30;54.20;;;;;;4972018;28;20019;-79
2021/05/03 11:14:37;;;;;;;5.55;3.03;;;19.10;54.60;;;;;;4972130;28;20023;-79
2021/05/03 11:17:14;;;;;;;3.78;2.63;;;18.80;55.00;;;;;;4972111;28;20031;-80
2021/05/03 11:19:54;;;;;;;2.95;2.60;;;18.60;55.50;;;;;;4970732;28;20427;-78
2021/05/03 11:22:24;;;;;;;8.02;2.92;;;18.40;55.60;;;;;;4970688;28;20113;-77
2021/05/03 11:24:58;;;;;;;2.83;2.58;;;18.20;55.90;;;;;;4973640;28;20023;-79
2021/05/03 11:30:41;;;;;;;3.17;2.65;;;17.70;56.70;;;;;;4973715;28;20030;-80
2021/05/03 11:33:11;;;;;;;5.40;3.15;;;17.60;57.70;;;;;;4974434;28;20489;-79
2021/05/03 11:46:25;;;;;;;5.75;3.40;;;17.80;60.00;;;;;;4975458;28;20030;-79
2021/05/03 11:48:56;;;;;;;3.83;3.38;;;17.90;60.00;;;;;;4975364;28;20085;-80
2021/05/03 11:51:22;;;;;;;3.80;3.33;;;18.00;60.00;;;;;;4975027;28;20533;-79
2021/05/03 11:53:49;;;;;;;6.28;4.00;;;18.20;59.80;;;;;;4975362;28;20022;-79
2021/05/03 11:56:41;;;;;;;8.40;3.80;;;18.30;59.70;;;;;;4973854;28;20054;-80
2021/05/03 11:59:16;;;;;;;7.47;4.72;;;18.50;59.90;;;;;;4970574;28;20031;-79
2021/05/03 12:01:41;;;;;;;4.38;3.45;;;18.60;59.70;;;;;;4974416;28;20461;-80
2021/05/03 12:04:07;;;;;;;10.93;3.88;;;18.80;59.40;;;;;;4975698;28;20034;-79
2021/05/03 12:06:42;;;;;;;4.25;3.33;;;19.00;59.10;;;;;;4973982;28;20357;-79
2021/05/03 12:09:10;;;;;;;11.35;4.25;;;19.10;58.80;;;;;;4973688;28;20038;-80
2021/05/03 12:11:37;;;;;;;7.35;3.45;;;19.30;58.30;;;;;;4974889;28;20031;-76
2021/05/03 12:14:04;;;;;;;4.28;3.22;;;19.40;57.80;;;;;;4974708;28;20029;-76
2021/05/03 12:16:31;;;;;;;5.28;3.05;;;19.60;57.50;;;;;;4974469;28;20125;-75
2021/05/03 12:18:58;;;;;;;12.38;3.35;;;19.70;57.00;;;;;;4973537;28;20359;-76
2021/05/03 12:21:24;;;;;;;6.75;3.50;;;19.70;56.50;;;;;;4973138;28;20350;-75
2021/05/03 12:23:49;;;;;;;6.85;2.75;;;19.70;56.20;;;;;;4973710;28;20035;-78
2021/05/03 12:26:15;;;;;;;4.65;3.40;;;19.70;55.90;;;;;;4975572;28;20192;-76
2021/05/03 12:28:42;;;;;;;9.15;3.38;;;19.60;56.00;;;;;;4974505;28;20037;-77
2021/05/03 12:31:07;;;;;;;9.50;3.75;;;19.60;55.90;;;;;;4973287;28;20031;-77
2021/05/03 12:33:38;;;;;;;4.50;3.40;;;19.60;55.80;;;;;;4974661;28;20031;-74
2021/05/03 12:36:09;;;;;;;4.97;2.78;;;19.70;55.40;;;;;;4974447;28;20027;-75
2021/05/03 12:38:35;;;;;;;5.13;2.47;;;19.90;55.20;;;;;;4974592;28;20014;-77
2021/05/03 12:41:03;;;;;;;3.47;2.70;;;20.20;54.50;;;;;;4973236;28;20034;-77
2021/05/03 12:43:36;;;;;;;8.55;2.30;;;20.40;53.40;;;;;;4973856;28;20033;-76
2021/05/03 12:48:49;;;;;;;4.45;2.30;;;20.40;52.00;;;;;;4974186;28;20034;-77
2021/05/03 12:59:37;;;;;;;3.55;2.22;;;20.10;51.50;;;;;;4974131;28;20031;-76
2021/05/03 13:02:29;;;;;;;2.63;2.10;;;20.10;51.50;;;;;;4974142;28;20023;-75
2021/05/03 13:05:12;;;;;;;2.13;1.88;;;20.10;51.50;;;;;;4974153;28;20338;-75
2021/05/03 13:29:43;;;;;;;4.53;1.95;;;19.80;50.00;;;;;;4973512;28;20038;-77
2021/05/03 13:32:19;;;;;;;2.10;2.00;;;20.00;49.50;;;;;;4972333;28;20073;-77
2021/05/03 13:34:48;;;;;;;7.05;1.85;;;20.00;49.50;;;;;;4973661;28;20026;-75
2021/05/03 13:37:14;;;;;;;4.38;2.00;;;20.00;49.00;;;;;;4973412;28;20086;-76
2021/05/03 13:39:40;;;;;;;4.13;2.00;;;20.00;48.80;;;;;;4973094;28;20027;-77
2021/05/03 13:42:10;;;;;;;4.38;2.10;;;19.90;48.70;;;;;;4973329;28;20053;-77
2021/05/03 13:44:37;;;;;;;4.55;1.77;;;19.90;48.80;;;;;;4973603;28;20106;-80
2021/05/03 13:47:03;;;;;;;6.50;2.13;;;19.90;48.70;;;;;;4972035;28;20027;-79
2021/05/03 13:49:33;;;;;;;2.00;1.90;;;19.80;48.20;;;;;;4973623;28;20106;-79
2021/05/03 13:52:01;;;;;;;1.92;1.70;;;19.70;48.20;;;;;;4972002;28;20159;-79
2021/05/03 13:54:27;;;;;;;5.40;2.50;;;19.60;48.00;;;;;;4973985;28;20027;-79
2021/05/03 13:57:00;;;;;;;2.17;1.98;;;19.50;47.90;;;;;;4975242;28;20033;-79
2021/05/03 13:59:26;;;;;;;7.13;2.42;;;19.30;47.60;;;;;;4975344;28;20034;-81
2021/05/03 14:01:52;;;;;;;4.88;2.17;;;19.20;47.60;;;;;;4974004;28;20090;-80